Bryce Canyon Airport Bryce Canyon US
ICAO: KBCE
IATA: BCE
Category: Medium
Scheduled Services: No

Elevation: 7590 ft
TransAlt. 18000 ft.

Airport Communications:
ASOS:135.475
CEDAR CITY RDO:122.2
CTAF/UNICOM:122.8

KBCE Zoom In..

If you have problems with the map follow the link
https://www.worldairports.se/pages/airport.php?
ICAO=KBCE

Runways:

(A) RW 03 length 7395 ft width 75 ft
---- / hdg 33

(B) RW 21 length 7395 ft width 75 ft
---- / hdg 213

Location; KBCE
Day. 18 / Time. 23.53 Zulu
* Altimeter: 30.31
* Temperature: 06° c. 42.8°f.
* Wind from: 040° Speed 13 kn.
Dewpoint: 01° c.
Visibility: 10 Statute Miles.
Clouds: Clear (automated report).

KBCE 182353Z AUTO 04013KT 10SM CLR 06/01 A3031 RMK AO2 SLP230 T00560011 10100 20050 53007


Wind From 040°
Speed 13 kn.

 
 
jpsmedia.com for Web Design worldairports.se 2018   terms of use